createdAt,value
2022-12-23T00:01:08.898Z,17.58
2022-12-23T00:03:35.578Z,17.64
2022-12-23T00:06:12.085Z,17.69
2022-12-23T00:08:39.592Z,17.77
2022-12-23T00:11:11.938Z,17.68
2022-12-23T00:13:57.093Z,17.70
2022-12-23T00:16:23.826Z,17.63
2022-12-23T00:18:50.462Z,17.43
2022-12-23T00:21:18.084Z,17.48
2022-12-23T00:23:47.692Z,17.39
2022-12-23T00:26:23.042Z,17.46
2022-12-23T00:28:50.600Z,17.45
2022-12-23T00:31:21.665Z,17.66
2022-12-23T00:33:51.160Z,17.69
2022-12-23T00:36:24.510Z,17.79
2022-12-23T00:39:10.106Z,17.79
2022-12-23T00:41:55.306Z,17.86
2022-12-23T00:44:22.007Z,17.89
2022-12-23T00:46:49.113Z,17.78
2022-12-23T00:49:37.148Z,17.67
2022-12-23T00:52:05.639Z,17.40
2022-12-23T00:54:32.467Z,17.25
2022-12-23T00:57:00.263Z,17.20
2022-12-23T00:59:26.993Z,17.43
2022-12-23T01:02:12.799Z,17.46
2022-12-23T01:04:58.555Z,17.45
2022-12-23T01:07:25.194Z,17.36
2022-12-23T01:09:51.688Z,17.49
2022-12-23T01:12:18.874Z,17.59
2022-12-23T01:14:45.700Z,17.64
2022-12-23T01:17:12.303Z,17.74
2022-12-23T01:19:39.319Z,17.72
2022-12-23T01:22:05.865Z,17.74
2022-12-23T01:24:32.610Z,17.78
2022-12-23T01:27:00.161Z,17.89
2022-12-23T01:29:27.155Z,17.93
2022-12-23T01:31:53.753Z,17.98
2022-12-23T01:34:20.388Z,17.79
2022-12-23T01:36:46.892Z,17.80
2022-12-23T01:39:13.437Z,17.80
2022-12-23T01:41:58.287Z,17.52
2022-12-23T01:44:50.041Z,17.77
2022-12-23T01:47:22.274Z,17.80
2022-12-23T01:49:50.419Z,17.87
2022-12-23T01:52:17.224Z,17.95
2022-12-23T01:54:44.510Z,17.91
2022-12-23T01:57:11.920Z,17.94
2022-12-23T01:59:57.865Z,17.90
2022-12-23T02:02:44.281Z,17.93
2022-12-23T02:05:12.172Z,17.79
2022-12-23T02:07:58.834Z,17.74
2022-12-23T02:10:35.750Z,17.87
2022-12-23T02:13:16.026Z,17.90
2022-12-23T02:16:10.075Z,17.93
2022-12-23T02:18:58.460Z,17.84
2022-12-23T02:21:40.745Z,17.76
2022-12-23T02:24:27.909Z,17.67
2022-12-23T02:27:06.386Z,17.77
2022-12-23T02:30:06.579Z,17.74
2022-12-23T02:32:54.275Z,17.60
2022-12-23T02:35:48.315Z,17.41
2022-12-23T02:38:28.029Z,17.68
2022-12-23T02:41:11.108Z,17.79
2022-12-23T02:43:45.156Z,17.86
2022-12-23T02:46:30.522Z,17.90
2022-12-23T02:49:08.859Z,17.84
2022-12-23T02:51:42.423Z,17.91
2022-12-23T02:54:14.119Z,17.98
2022-12-23T02:56:45.216Z,18.00
2022-12-23T02:59:19.678Z,17.91
2022-12-23T03:01:47.669Z,17.97
2022-12-23T03:04:15.080Z,17.94
2022-12-23T03:06:44.759Z,17.89
2022-12-23T03:09:23.105Z,17.84
2022-12-23T03:12:14.217Z,17.92
2022-12-23T03:15:13.054Z,17.90
2022-12-23T03:17:48.473Z,17.93
2022-12-23T03:20:33.266Z,18.00
2022-12-23T03:23:20.989Z,18.08
2022-12-23T03:26:01.577Z,17.95
2022-12-23T03:28:39.447Z,17.79
2022-12-23T03:31:09.983Z,17.77
2022-12-23T03:33:43.393Z,17.48
2022-12-23T03:36:18.212Z,17.26
2022-12-23T03:38:45.267Z,17.39
2022-12-23T03:41:18.458Z,17.48
2022-12-23T03:43:55.087Z,17.59
2022-12-23T03:46:30.522Z,17.69
2022-12-23T03:49:02.448Z,17.80
2022-12-23T03:51:57.152Z,17.84
2022-12-23T03:54:30.652Z,17.84
2022-12-23T03:57:04.357Z,17.89
2022-12-23T03:59:45.154Z,17.96
2022-12-23T04:02:26.676Z,17.98
2022-12-23T04:05:15.110Z,18.01
2022-12-23T04:07:53.127Z,17.98
2022-12-23T04:10:21.860Z,17.99
2022-12-23T04:12:49.226Z,18.02
2022-12-23T04:15:21.128Z,18.05
2022-12-23T04:17:48.907Z,18.05
2022-12-23T04:20:15.615Z,18.04
2022-12-23T04:22:43.502Z,18.07
2022-12-23T04:25:11.556Z,18.09
2022-12-23T04:27:38.357Z,18.12
2022-12-23T04:30:06.395Z,18.12
2022-12-23T04:32:33.161Z,18.12
2022-12-23T04:35:00.155Z,18.15
2022-12-23T04:37:26.794Z,18.15
2022-12-23T04:39:53.570Z,18.14
2022-12-23T04:42:20.155Z,18.15
2022-12-23T04:44:47.091Z,18.13
2022-12-23T04:47:14.056Z,18.13
2022-12-23T04:49:40.569Z,18.15
2022-12-23T04:52:07.891Z,18.19
2022-12-23T04:54:34.457Z,18.11
2022-12-23T04:57:01.087Z,18.12
2022-12-23T04:59:27.752Z,18.13
2022-12-23T05:01:54.462Z,18.00
2022-12-23T05:04:21.163Z,17.95
2022-12-23T05:06:47.715Z,17.99
2022-12-23T05:09:14.238Z,17.95
2022-12-23T05:11:42.494Z,17.92
2022-12-23T05:14:12.979Z,17.85
2022-12-23T05:16:39.526Z,17.92
2022-12-23T05:19:06.536Z,17.87
2022-12-23T05:21:33.198Z,17.84
2022-12-23T05:23:59.759Z,17.80
2022-12-23T05:26:26.303Z,17.63
2022-12-23T05:28:52.825Z,17.40
2022-12-23T05:31:19.387Z,17.56
2022-12-23T05:33:46.015Z,17.62
2022-12-23T05:36:13.313Z,17.61
2022-12-23T05:38:39.870Z,17.74
2022-12-23T05:41:06.846Z,17.72
2022-12-23T05:43:33.496Z,17.50
2022-12-23T05:46:00.139Z,17.61
2022-12-23T05:48:27.247Z,17.67
2022-12-23T05:50:54.296Z,17.70
2022-12-23T05:53:21.460Z,17.64
2022-12-23T05:55:48.388Z,17.67
2022-12-23T05:58:16.262Z,17.72
2022-12-23T06:00:43.183Z,17.58
2022-12-23T06:03:11.715Z,17.45
2022-12-23T06:05:39.993Z,17.57
2022-12-23T06:08:06.551Z,17.34
2022-12-23T06:10:33.087Z,17.35
2022-12-23T06:13:00.623Z,17.36
2022-12-23T06:15:27.192Z,17.53
2022-12-23T06:17:55.727Z,17.52
2022-12-23T06:20:22.287Z,17.65
2022-12-23T06:22:48.857Z,17.74
2022-12-23T06:25:15.434Z,17.75
2022-12-23T06:27:41.992Z,17.74
2022-12-23T06:30:09.205Z,17.73
2022-12-23T06:32:38.534Z,17.74
2022-12-23T06:35:07.201Z,17.79
2022-12-23T06:37:34.006Z,17.91
2022-12-23T06:40:00.903Z,17.85
2022-12-23T06:42:27.481Z,17.87
2022-12-23T06:44:54.423Z,17.80
2022-12-23T06:47:20.947Z,17.84
2022-12-23T06:49:47.478Z,17.93
2022-12-23T06:52:14.011Z,17.95
2022-12-23T06:54:40.563Z,17.88
2022-12-23T06:57:07.672Z,17.91
2022-12-23T06:59:34.190Z,17.72
2022-12-23T07:02:00.871Z,17.76
2022-12-23T07:04:27.573Z,17.81
2022-12-23T07:06:54.071Z,17.86
2022-12-23T07:09:20.605Z,17.87
2022-12-23T07:11:47.204Z,17.85
2022-12-23T07:14:13.743Z,17.88
2022-12-23T07:16:40.586Z,17.82
2022-12-23T07:19:07.872Z,17.84
2022-12-23T07:21:34.694Z,17.87
2022-12-23T07:24:01.280Z,17.91
2022-12-23T07:26:27.829Z,17.98
2022-12-23T07:28:54.755Z,17.98
2022-12-23T07:31:21.681Z,18.00
2022-12-23T07:33:48.294Z,17.92
2022-12-23T07:36:15.119Z,17.83
2022-12-23T07:38:41.668Z,17.86
2022-12-23T07:41:08.169Z,17.84
2022-12-23T07:43:34.692Z,17.88
2022-12-23T07:46:06.923Z,17.90
2022-12-23T07:48:33.514Z,17.94
2022-12-23T07:51:03.940Z,17.92
2022-12-23T07:53:31.348Z,17.83
2022-12-23T07:55:58.161Z,17.87
2022-12-23T07:58:25.087Z,17.80
2022-12-23T08:00:59.553Z,17.65
2022-12-23T08:03:26.401Z,17.79
2022-12-23T08:06:05.164Z,17.79
2022-12-23T08:08:32.276Z,18.49
2022-12-23T08:11:01.060Z,18.02
2022-12-23T08:13:27.928Z,17.85
2022-12-23T08:15:56.149Z,17.74
2022-12-23T08:18:23.937Z,17.66
2022-12-23T08:21:12.897Z,17.55
2022-12-23T08:23:39.468Z,17.73
2022-12-23T08:26:11.483Z,17.70
2022-12-23T08:28:39.614Z,17.72
2022-12-23T08:31:19.421Z,17.77
2022-12-23T08:33:49.630Z,17.62
2022-12-23T08:36:23.000Z,17.33
2022-12-23T08:38:53.277Z,17.51
2022-12-23T08:41:22.935Z,17.65
2022-12-23T08:43:50.128Z,17.56
2022-12-23T08:46:17.426Z,17.70
2022-12-23T08:48:49.161Z,17.65
2022-12-23T08:51:18.084Z,17.72
2022-12-23T08:53:44.700Z,17.73
2022-12-23T08:56:15.040Z,17.61
2022-12-23T08:58:43.873Z,17.80
2022-12-23T09:01:12.466Z,17.85
2022-12-23T09:03:39.526Z,17.78
2022-12-23T09:06:11.152Z,17.88
2022-12-23T09:08:38.670Z,17.82
2022-12-23T09:11:08.536Z,17.89
2022-12-23T09:13:36.150Z,17.61
2022-12-23T09:16:03.931Z,17.79
2022-12-23T09:18:30.671Z,17.97
2022-12-23T09:21:08.402Z,18.16
2022-12-23T09:23:34.938Z,18.25
2022-12-23T09:26:04.821Z,18.15
2022-12-23T09:28:31.618Z,18.19
2022-12-23T09:30:58.199Z,18.36
2022-12-23T09:33:25.058Z,18.42
2022-12-23T09:35:51.743Z,18.49
2022-12-23T09:38:18.261Z,18.60
2022-12-23T09:40:47.144Z,18.52
2022-12-23T09:43:55.617Z,18.75
2022-12-23T09:46:25.330Z,18.79
2022-12-23T09:49:03.042Z,18.72
2022-12-23T09:51:30.671Z,18.85
2022-12-23T09:54:16.689Z,18.85
2022-12-23T09:56:57.919Z,18.90
2022-12-23T09:59:51.052Z,19.02
2022-12-23T10:02:38.930Z,19.03
2022-12-23T10:05:16.557Z,18.91
2022-12-23T10:07:49.546Z,18.58
2022-12-23T10:10:54.616Z,18.76
2022-12-23T10:13:51.947Z,18.81
2022-12-23T10:16:51.730Z,18.65
2022-12-23T10:19:24.713Z,18.13
2022-12-23T10:22:15.019Z,18.28
2022-12-23T10:24:44.598Z,18.41
2022-12-23T10:27:32.973Z,18.59
2022-12-23T10:30:19.828Z,17.92
2022-12-23T10:33:21.415Z,18.22
2022-12-23T10:36:17.777Z,18.35
2022-12-23T10:39:00.501Z,18.22
2022-12-23T10:41:39.993Z,18.33
2022-12-23T10:44:25.278Z,18.40
2022-12-23T10:47:13.228Z,18.05
2022-12-23T10:49:51.801Z,18.29
2022-12-23T10:52:22.837Z,18.52
2022-12-23T10:54:49.736Z,18.46
2022-12-23T10:57:18.526Z,18.49
2022-12-23T10:59:45.585Z,18.54
2022-12-23T11:02:12.251Z,18.75
2022-12-23T11:04:45.854Z,18.79
2022-12-23T11:07:45.122Z,18.66
2022-12-23T11:10:25.794Z,18.15
2022-12-23T11:12:53.768Z,18.21
2022-12-23T11:15:29.116Z,18.25
2022-12-23T11:18:23.656Z,18.26
2022-12-23T11:21:05.803Z,18.02
2022-12-23T11:23:36.692Z,18.46
2022-12-23T11:26:09.486Z,18.63
2022-12-23T11:28:48.296Z,18.81
2022-12-23T11:31:16.901Z,18.94
2022-12-23T11:33:55.894Z,19.05
2022-12-23T11:36:25.024Z,18.88
2022-12-23T11:39:26.221Z,19.18
2022-12-23T11:42:02.654Z,19.44
2022-12-23T11:44:34.036Z,19.62
2022-12-23T11:47:22.994Z,19.61
2022-12-23T11:49:55.190Z,19.71
2022-12-23T11:52:24.074Z,19.77
2022-12-23T11:54:56.191Z,19.73
2022-12-23T11:57:47.471Z,19.72
2022-12-23T12:00:23.889Z,19.77
2022-12-23T12:02:52.941Z,19.87
2022-12-23T12:05:25.243Z,19.96
2022-12-23T12:07:52.581Z,19.48
2022-12-23T12:10:25.442Z,19.32
2022-12-23T12:12:56.762Z,19.51
2022-12-23T12:15:41.426Z,19.50
2022-12-23T12:18:12.592Z,18.96
2022-12-23T12:20:44.894Z,18.82
2022-12-23T12:23:18.502Z,18.98
2022-12-23T12:25:52.002Z,19.05
2022-12-23T12:28:24.938Z,18.80
2022-12-23T12:31:00.948Z,18.99
2022-12-23T12:33:52.148Z,18.81
2022-12-23T12:36:32.904Z,18.78
2022-12-23T12:39:00.431Z,18.88
2022-12-23T12:41:39.717Z,18.56
2022-12-23T12:44:24.956Z,18.68
2022-12-23T12:46:57.735Z,18.51
2022-12-23T12:49:43.166Z,18.77
2022-12-23T12:52:13.965Z,18.81
2022-12-23T12:54:58.456Z,18.52
2022-12-23T12:57:25.988Z,18.85
2022-12-23T13:00:05.212Z,18.86
2022-12-23T13:03:05.719Z,19.09
2022-12-23T13:05:59.628Z,18.98
2022-12-23T13:08:44.425Z,18.74
2022-12-23T13:11:45.223Z,18.37
2022-12-23T13:14:34.579Z,17.96
2022-12-23T13:17:14.125Z,17.60
2022-12-23T13:20:09.809Z,17.58
2022-12-23T13:22:37.776Z,17.66
2022-12-23T13:25:17.890Z,18.12
2022-12-23T13:27:54.719Z,17.63
2022-12-23T13:30:28.199Z,17.50
2022-12-23T13:33:15.975Z,17.36
2022-12-23T13:36:09.284Z,16.73
2022-12-23T13:39:31.681Z,16.70
2022-12-23T13:42:05.639Z,16.73
2022-12-23T13:44:34.493Z,16.71
2022-12-23T13:47:39.630Z,17.09
2022-12-23T13:50:15.597Z,17.26
2022-12-23T13:52:57.077Z,17.14
2022-12-23T13:55:44.812Z,16.81
2022-12-23T13:58:15.354Z,16.58
2022-12-23T14:00:42.371Z,16.85
2022-12-23T14:03:12.750Z,17.05
2022-12-23T14:05:47.341Z,17.32
2022-12-23T14:08:29.247Z,17.17
2022-12-23T14:11:11.170Z,16.97
2022-12-23T14:13:49.558Z,17.12
2022-12-23T14:16:27.990Z,17.40
2022-12-23T14:19:18.563Z,17.16
2022-12-23T14:22:20.249Z,17.33
2022-12-23T14:25:04.980Z,17.09
2022-12-23T14:27:45.342Z,16.90
2022-12-23T14:30:40.261Z,16.53
2022-12-23T14:33:10.770Z,17.04
2022-12-23T14:35:42.672Z,17.18
2022-12-23T14:38:15.593Z,17.32
2022-12-23T14:40:42.081Z,17.20
2022-12-23T14:43:27.040Z,17.36
2022-12-23T14:46:02.346Z,17.78
2022-12-23T14:49:09.877Z,17.44
2022-12-23T14:51:40.636Z,17.15
2022-12-23T14:54:13.650Z,17.17
2022-12-23T14:56:43.122Z,17.20
2022-12-23T14:59:34.574Z,17.36
2022-12-23T15:02:21.884Z,17.28
2022-12-23T15:04:55.199Z,17.32
2022-12-23T15:07:30.999Z,16.94
2022-12-23T15:10:01.587Z,17.16
2022-12-23T15:12:33.538Z,17.16
2022-12-23T15:15:14.255Z,17.12
2022-12-23T15:17:41.054Z,16.95
2022-12-23T15:20:15.492Z,17.00
2022-12-23T15:22:44.719Z,16.87
2022-12-23T15:25:32.771Z,17.09
2022-12-23T15:28:02.766Z,17.02
2022-12-23T15:30:34.176Z,17.17
2022-12-23T15:33:11.935Z,17.10
2022-12-23T15:35:52.749Z,16.86
2022-12-23T15:38:21.082Z,16.89
2022-12-23T15:41:05.998Z,17.08
2022-12-23T15:43:32.831Z,17.27
2022-12-23T15:46:15.749Z,17.26
2022-12-23T15:48:43.134Z,17.37
2022-12-23T15:51:57.814Z,17.24
2022-12-23T15:54:22.072Z,17.17
2022-12-23T15:56:51.737Z,17.17
2022-12-23T15:59:32.944Z,16.93
2022-12-23T16:02:24.969Z,17.09
2022-12-23T16:05:00.423Z,17.07
2022-12-23T16:07:41.791Z,17.22
2022-12-23T16:10:19.146Z,17.43
2022-12-23T16:12:50.216Z,17.17
2022-12-23T16:15:29.483Z,17.12
2022-12-23T16:18:14.206Z,17.25
2022-12-23T16:21:00.590Z,17.28
2022-12-23T16:23:33.602Z,17.08
2022-12-23T16:26:02.200Z,17.14
2022-12-23T16:28:39.825Z,16.73
2022-12-23T16:31:07.737Z,16.66
2022-12-23T16:33:39.568Z,16.34
2022-12-23T16:36:25.094Z,16.43
2022-12-23T16:39:07.038Z,15.77
2022-12-23T16:41:34.781Z,15.85
2022-12-23T16:44:01.973Z,15.82
2022-12-23T16:46:34.080Z,16.36
2022-12-23T16:49:04.813Z,16.44
2022-12-23T16:51:34.056Z,16.66
2022-12-23T16:54:01.290Z,16.45
2022-12-23T16:56:34.817Z,16.16
2022-12-23T16:59:01.731Z,16.39
2022-12-23T17:01:32.097Z,16.28
2022-12-23T17:03:59.234Z,16.31
2022-12-23T17:06:26.377Z,16.42
2022-12-23T17:08:53.286Z,16.79
2022-12-23T17:11:35.989Z,16.72
2022-12-23T17:14:06.741Z,16.41
2022-12-23T17:16:35.802Z,16.52
2022-12-23T17:19:02.634Z,16.51
2022-12-23T17:21:33.356Z,16.55
2022-12-23T17:24:25.984Z,16.28
2022-12-23T17:26:54.196Z,15.91
2022-12-23T17:29:20.778Z,15.88
2022-12-23T17:31:47.948Z,15.96
2022-12-23T17:34:17.201Z,16.21
2022-12-23T17:36:49.556Z,16.20
2022-12-23T17:39:16.781Z,16.33
2022-12-23T17:41:43.393Z,15.78
2022-12-23T17:44:13.831Z,15.59
2022-12-23T17:46:40.795Z,15.05
2022-12-23T17:49:08.414Z,15.27
2022-12-23T17:51:35.296Z,15.88
2022-12-23T17:54:02.162Z,16.13
2022-12-23T17:56:29.336Z,16.17
2022-12-23T17:58:56.171Z,16.10
2022-12-23T18:01:29.634Z,15.84
2022-12-23T18:03:58.861Z,15.85
2022-12-23T18:06:27.601Z,15.61
2022-12-23T18:08:54.347Z,15.14
2022-12-23T18:11:29.939Z,15.33
2022-12-23T18:13:56.664Z,15.22
2022-12-23T18:16:23.392Z,14.94
2022-12-23T18:18:50.252Z,14.81
2022-12-23T18:21:25.352Z,14.91
2022-12-23T18:23:54.015Z,14.70
2022-12-23T18:26:21.037Z,14.58
2022-12-23T18:28:47.782Z,14.64
2022-12-23T18:31:20.083Z,14.64
2022-12-23T18:33:47.134Z,14.64
2022-12-23T18:36:25.026Z,14.44
2022-12-23T18:38:52.626Z,14.43
2022-12-23T18:41:21.054Z,14.25
2022-12-23T18:43:47.670Z,14.48
2022-12-23T18:46:14.296Z,14.63
2022-12-23T18:48:40.892Z,15.05
2022-12-23T18:51:19.369Z,15.25
2022-12-23T18:53:47.806Z,15.63
2022-12-23T18:56:20.871Z,15.96
2022-12-23T18:58:47.792Z,15.57
2022-12-23T19:01:15.895Z,15.67
2022-12-23T19:03:43.717Z,15.61
2022-12-23T19:06:13.802Z,15.64
2022-12-23T19:08:41.745Z,15.56
2022-12-23T19:11:12.429Z,15.52
2022-12-23T19:13:39.291Z,15.48
2022-12-23T19:16:06.088Z,15.48
2022-12-23T19:18:32.665Z,15.42
2022-12-23T19:21:04.127Z,15.79
2022-12-23T19:23:30.676Z,15.74
2022-12-23T19:25:57.242Z,15.95
2022-12-23T19:28:24.337Z,15.22
2022-12-23T19:30:50.986Z,15.43
2022-12-23T19:33:17.688Z,15.42
2022-12-23T19:35:44.748Z,15.78
2022-12-23T19:38:12.108Z,15.85
2022-12-23T19:40:39.238Z,15.78
2022-12-23T19:43:06.024Z,15.49
2022-12-23T19:45:32.621Z,15.71
2022-12-23T19:47:59.269Z,15.34
2022-12-23T19:50:27.196Z,15.62
2022-12-23T19:52:54.718Z,15.50
2022-12-23T19:55:21.425Z,15.72
2022-12-23T19:57:48.012Z,15.98
2022-12-23T20:00:16.174Z,15.68
2022-12-23T20:02:42.774Z,15.30
2022-12-23T20:05:10.470Z,15.68
2022-12-23T20:07:37.168Z,15.31
2022-12-23T20:10:05.576Z,15.21
2022-12-23T20:12:32.241Z,15.37
2022-12-23T20:14:59.643Z,15.15
2022-12-23T20:17:26.185Z,14.86
2022-12-23T20:19:52.747Z,14.67
2022-12-23T20:22:19.397Z,14.80
2022-12-23T20:24:45.973Z,14.81
2022-12-23T20:27:15.629Z,14.16
2022-12-23T20:29:42.650Z,14.34
2022-12-23T20:32:09.211Z,14.32
2022-12-23T20:34:39.520Z,14.78
2022-12-23T20:37:07.794Z,14.94
2022-12-23T20:39:34.734Z,14.84
2022-12-23T20:42:01.662Z,14.85
2022-12-23T20:44:37.107Z,14.45
2022-12-23T20:47:06.323Z,14.22
2022-12-23T20:49:33.284Z,14.52
2022-12-23T20:52:00.314Z,14.35
2022-12-23T20:54:32.781Z,14.25
2022-12-23T20:57:00.597Z,14.21
2022-12-23T20:59:27.120Z,13.98
2022-12-23T21:01:53.945Z,14.49
2022-12-23T21:04:20.713Z,14.36
2022-12-23T21:06:47.517Z,14.32
2022-12-23T21:09:15.649Z,14.24
2022-12-23T21:11:45.610Z,13.95
2022-12-23T21:14:13.344Z,13.93
2022-12-23T21:16:40.505Z,14.58
2022-12-23T21:19:09.316Z,14.85
2022-12-23T21:21:36.064Z,15.01
2022-12-23T21:24:04.518Z,15.10
2022-12-23T21:26:33.592Z,15.00
2022-12-23T21:29:01.855Z,14.42
2022-12-23T21:31:30.737Z,14.24
2022-12-23T21:33:58.061Z,14.46
2022-12-23T21:36:27.389Z,14.27
2022-12-23T21:38:53.998Z,14.36
2022-12-23T21:41:23.345Z,14.86
2022-12-23T21:43:50.582Z,14.88
2022-12-23T21:46:20.376Z,14.16
2022-12-23T21:48:48.190Z,14.52
2022-12-23T21:51:16.078Z,14.61
2022-12-23T21:53:45.011Z,14.80
2022-12-23T21:56:18.109Z,14.69
2022-12-23T21:58:45.962Z,14.68
2022-12-23T22:01:18.145Z,14.63
2022-12-23T22:03:49.388Z,14.92
2022-12-23T22:06:19.644Z,14.88
2022-12-23T22:08:46.463Z,15.01
2022-12-23T22:11:16.535Z,15.15
2022-12-23T22:13:45.215Z,14.60
2022-12-23T22:16:14.396Z,13.88
2022-12-23T22:18:41.549Z,14.23
2022-12-23T22:21:13.475Z,14.58
2022-12-23T22:23:40.785Z,14.45
2022-12-23T22:26:08.289Z,14.52
2022-12-23T22:28:37.137Z,14.38
2022-12-23T22:31:07.215Z,14.55
2022-12-23T22:33:34.754Z,14.76
2022-12-23T22:36:01.417Z,14.50
2022-12-23T22:38:28.357Z,14.36
2022-12-23T22:40:54.925Z,14.67
2022-12-23T22:43:21.460Z,14.84
2022-12-23T22:45:55.952Z,14.36
2022-12-23T22:48:23.260Z,14.47
2022-12-23T22:50:49.910Z,13.89
2022-12-23T22:53:16.478Z,14.57
2022-12-23T22:55:43.002Z,14.85
2022-12-23T22:58:09.627Z,14.82
2022-12-23T23:00:36.355Z,15.18
2022-12-23T23:03:03.640Z,14.97
2022-12-23T23:05:30.189Z,15.05
2022-12-23T23:07:56.884Z,15.07
2022-12-23T23:10:23.675Z,15.42
2022-12-23T23:12:50.197Z,15.35
2022-12-23T23:15:16.785Z,15.12
2022-12-23T23:17:43.269Z,15.37
2022-12-23T23:20:10.021Z,15.23
2022-12-23T23:22:36.651Z,15.34
2022-12-23T23:25:03.568Z,15.65
2022-12-23T23:27:30.067Z,15.75
2022-12-23T23:29:56.606Z,15.85
2022-12-23T23:32:23.222Z,15.92
2022-12-23T23:34:50.096Z,15.98
2022-12-23T23:37:16.633Z,16.14
2022-12-23T23:39:43.232Z,16.30
2022-12-23T23:42:09.809Z,16.32
2022-12-23T23:44:36.352Z,16.46
2022-12-23T23:47:03.353Z,16.54
2022-12-23T23:49:30.190Z,16.66
2022-12-23T23:51:57.202Z,16.62
2022-12-23T23:54:23.830Z,16.54
2022-12-23T23:56:50.371Z,16.35
2022-12-23T23:59:16.959Z,16.09
